Terminal Aerodrome Forecast
Issued by NWS Sioux Falls, SD

Home | Current Version | Previous Version | Graphics & Text | Print | Product List | Glossary Off
Versions: 1 2 3 4 5 6 7 8 9 10 11 12 13 14 15 16

000
FTUS43 KFSD 301130
TAFHON
TAF
KHON 301130Z 3012/0112 13012G20KT P6SM SCT010 BKN090
      TEMPO 3014/3015 6SM SHRA BKN010
     FM301500 13015G25KT P6SM OVC015
      TEMPO 3015/3018 SHRA
     FM301930 13017G26KT P6SM SCT035 BKN120
      TEMPO 3021/3023 5SM TSRA BKN030CB
     FM010100 18009KT P6SM BKN120=

USA.gov is the U.S. government's official web portal to all federal, state and local government web resources and services.